sensor_id;sensor_type;location;lat;lon;timestamp;pressure;altitude;pressure_sealevel;temperature;humidity
38267;BME280;24063;51.794;19.578;2022-12-18T00:00:41;99830.14;;;-5.67;100.00
38267;BME280;24063;51.794;19.578;2022-12-18T00:02:03;99835.38;;;-5.66;100.00
38267;BME280;24063;51.794;19.578;2022-12-18T00:03:06;99835.17;;;-5.66;100.00
38267;BME280;24063;51.794;19.578;2022-12-18T00:04:22;99835.13;;;-5.66;100.00
38267;BME280;24063;51.794;19.578;2022-12-18T00:05:24;99839.98;;;-5.65;100.00
38267;BME280;24063;51.794;19.578;2022-12-18T00:06:28;99839.01;;;-5.64;100.00
38267;BME280;24063;51.794;19.578;2022-12-18T00:07:30;99838.63;;;-5.62;100.00
38267;BME280;24063;51.794;19.578;2022-12-18T00:08:32;99838.27;;;-5.62;100.00
38267;BME280;24063;51.794;19.578;2022-12-18T00:09:34;99841.36;;;-5.63;100.00
38267;BME280;24063;51.794;19.578;2022-12-18T00:10:41;99840.35;;;-5.63;100.00
38267;BME280;24063;51.794;19.578;2022-12-18T00:11:43;99841.68;;;-5.65;100.00
38267;BME280;24063;51.794;19.578;2022-12-18T00:12:45;99844.55;;;-5.65;100.00
38267;BME280;24063;51.794;19.578;2022-12-18T00:13:48;99846.27;;;-5.67;100.00
38267;BME280;24063;51.794;19.578;2022-12-18T00:14:50;99842.98;;;-5.70;100.00
38267;BME280;24063;51.794;19.578;2022-12-18T00:15:52;99839.39;;;-5.71;100.00
38267;BME280;24063;51.794;19.578;2022-12-18T00:16:57;99846.36;;;-5.72;100.00
38267;BME280;24063;51.794;19.578;2022-12-18T00:18:02;99840.84;;;-5.73;100.00
38267;BME280;24063;51.794;19.578;2022-12-18T00:19:05;99841.17;;;-5.75;100.00
38267;BME280;24063;51.794;19.578;2022-12-18T00:20:08;99840.67;;;-5.77;100.00
38267;BME280;24063;51.794;19.578;2022-12-18T00:21:12;99841.11;;;-5.78;100.00
38267;BME280;24063;51.794;19.578;2022-12-18T00:22:17;99845.81;;;-5.79;100.00
38267;BME280;24063;51.794;19.578;2022-12-18T00:23:20;99846.70;;;-5.79;100.00
38267;BME280;24063;51.794;19.578;2022-12-18T00:24:22;99849.66;;;-5.79;100.00
38267;BME280;24063;51.794;19.578;2022-12-18T00:25:24;99848.86;;;-5.78;100.00
38267;BME280;24063;51.794;19.578;2022-12-18T00:26:29;99849.55;;;-5.76;100.00
38267;BME280;24063;51.794;19.578;2022-12-18T00:27:32;99852.31;;;-5.74;100.00
38267;BME280;24063;51.794;19.578;2022-12-18T00:28:34;99852.64;;;-5.73;100.00
38267;BME280;24063;51.794;19.578;2022-12-18T00:29:37;99855.95;;;-5.73;100.00
38267;BME280;24063;51.794;19.578;2022-12-18T00:30:39;99860.68;;;-5.73;100.00
38267;BME280;24063;51.794;19.578;2022-12-18T00:31:42;99856.86;;;-5.74;100.00
38267;BME280;24063;51.794;19.578;2022-12-18T00:32:45;99858.33;;;-5.72;100.00
38267;BME280;24063;51.794;19.578;2022-12-18T00:33:47;99862.38;;;-5.71;100.00
38267;BME280;24063;51.794;19.578;2022-12-18T00:34:56;99864.02;;;-5.67;100.00
38267;BME280;24063;51.794;19.578;2022-12-18T00:36:05;99862.20;;;-5.64;100.00
38267;BME280;24063;51.794;19.578;2022-12-18T00:37:08;99866.23;;;-5.64;100.00
38267;BME280;24063;51.794;19.578;2022-12-18T00:38:10;99868.98;;;-5.65;100.00
38267;BME280;24063;51.794;19.578;2022-12-18T00:39:12;99873.02;;;-5.66;100.00
38267;BME280;24063;51.794;19.578;2022-12-18T00:40:14;99876.65;;;-5.67;100.00
38267;BME280;24063;51.794;19.578;2022-12-18T00:41:17;99875.85;;;-5.68;100.00
38267;BME280;24063;51.794;19.578;2022-12-18T00:42:40;99880.63;;;-5.70;100.00
38267;BME280;24063;51.794;19.578;2022-12-18T00:43:57;99882.88;;;-5.72;100.00
38267;BME280;24063;51.794;19.578;2022-12-18T00:45:00;99886.46;;;-5.73;100.00
38267;BME280;24063;51.794;19.578;2022-12-18T00:46:02;99889.34;;;-5.74;100.00
38267;BME280;24063;51.794;19.578;2022-12-18T00:47:06;99891.48;;;-5.76;100.00
38267;BME280;24063;51.794;19.578;2022-12-18T00:48:07;99892.42;;;-5.77;100.00
38267;BME280;24063;51.794;19.578;2022-12-18T00:49:13;99891.29;;;-5.76;100.00
38267;BME280;24063;51.794;19.578;2022-12-18T00:50:15;99890.54;;;-5.73;100.00
38267;BME280;24063;51.794;19.578;2022-12-18T00:51:17;99896.91;;;-5.72;100.00
38267;BME280;24063;51.794;19.578;2022-12-18T00:52:19;99899.16;;;-5.72;100.00
38267;BME280;24063;51.794;19.578;2022-12-18T00:53:21;99897.54;;;-5.71;100.00
38267;BME280;24063;51.794;19.578;2022-12-18T00:54:24;99897.41;;;-5.72;100.00
38267;BME280;24063;51.794;19.578;2022-12-18T00:55:27;99898.68;;;-5.72;100.00
38267;BME280;24063;51.794;19.578;2022-12-18T00:56:29;99895.66;;;-5.74;100.00
38267;BME280;24063;51.794;19.578;2022-12-18T00:57:31;99897.27;;;-5.74;100.00
38267;BME280;24063;51.794;19.578;2022-12-18T00:58:33;99899.36;;;-5.74;100.00
38267;BME280;24063;51.794;19.578;2022-12-18T00:59:38;99897.21;;;-5.73;100.00
38267;BME280;24063;51.794;19.578;2022-12-18T01:00:41;99901.21;;;-5.73;100.00
38267;BME280;24063;51.794;19.578;2022-12-18T01:01:45;99903.17;;;-5.73;100.00
38267;BME280;24063;51.794;19.578;2022-12-18T01:02:48;99903.90;;;-5.73;100.00
38267;BME280;24063;51.794;19.578;2022-12-18T01:03:51;99904.96;;;-5.74;100.00
38267;BME280;24063;51.794;19.578;2022-12-18T01:04:54;99906.86;;;-5.73;100.00
38267;BME280;24063;51.794;19.578;2022-12-18T01:05:56;99906.64;;;-5.73;100.00
38267;BME280;24063;51.794;19.578;2022-12-18T01:06:58;99909.50;;;-5.71;100.00
38267;BME280;24063;51.794;19.578;2022-12-18T01:08:01;99908.50;;;-5.70;100.00
38267;BME280;24063;51.794;19.578;2022-12-18T01:09:03;99911.11;;;-5.67;100.00
38267;BME280;24063;51.794;19.578;2022-12-18T01:10:32;99909.59;;;-5.66;100.00
38267;BME280;24063;51.794;19.578;2022-12-18T01:11:34;99912.21;;;-5.64;100.00
38267;BME280;24063;51.794;19.578;2022-12-18T01:12:36;99912.09;;;-5.62;100.00
38267;BME280;24063;51.794;19.578;2022-12-18T01:13:39;99912.25;;;-5.63;100.00
38267;BME280;24063;51.794;19.578;2022-12-18T01:14:42;99914.67;;;-5.62;100.00
38267;BME280;24063;51.794;19.578;2022-12-18T01:15:49;99917.38;;;-5.63;100.00
38267;BME280;24063;51.794;19.578;2022-12-18T01:16:51;99921.81;;;-5.63;100.00
38267;BME280;24063;51.794;19.578;2022-12-18T01:17:55;99920.92;;;-5.65;100.00
38267;BME280;24063;51.794;19.578;2022-12-18T01:18:57;99919.04;;;-5.68;100.00
38267;BME280;24063;51.794;19.578;2022-12-18T01:20:01;99923.52;;;-5.69;100.00
38267;BME280;24063;51.794;19.578;2022-12-18T01:21:07;99924.25;;;-5.71;100.00
38267;BME280;24063;51.794;19.578;2022-12-18T01:22:11;99925.69;;;-5.73;100.00
38267;BME280;24063;51.794;19.578;2022-12-18T01:23:13;99929.63;;;-5.74;100.00
38267;BME280;24063;51.794;19.578;2022-12-18T01:24:15;99929.33;;;-5.73;100.00
38267;BME280;24063;51.794;19.578;2022-12-18T01:25:17;99927.83;;;-5.72;100.00
38267;BME280;24063;51.794;19.578;2022-12-18T01:26:20;99925.64;;;-5.71;100.00
38267;BME280;24063;51.794;19.578;2022-12-18T01:27:22;99929.05;;;-5.72;100.00
38267;BME280;24063;51.794;19.578;2022-12-18T01:28:25;99929.08;;;-5.72;100.00
38267;BME280;24063;51.794;19.578;2022-12-18T01:29:28;99929.30;;;-5.73;100.00
38267;BME280;24063;51.794;19.578;2022-12-18T01:30:30;99929.88;;;-5.71;100.00
38267;BME280;24063;51.794;19.578;2022-12-18T01:31:33;99930.11;;;-5.70;100.00
38267;BME280;24063;51.794;19.578;2022-12-18T01:32:36;99932.18;;;-5.70;100.00
38267;BME280;24063;51.794;19.578;2022-12-18T01:33:38;99934.20;;;-5.68;100.00
38267;BME280;24063;51.794;19.578;2022-12-18T01:34:41;99936.23;;;-5.68;100.00
38267;BME280;24063;51.794;19.578;2022-12-18T01:35:43;99938.73;;;-5.66;100.00
38267;BME280;24063;51.794;19.578;2022-12-18T01:36:45;99938.64;;;-5.65;100.00
38267;BME280;24063;51.794;19.578;2022-12-18T01:37:47;99936.40;;;-5.65;100.00
38267;BME280;24063;51.794;19.578;2022-12-18T01:38:50;99937.52;;;-5.64;100.00
38267;BME280;24063;51.794;19.578;2022-12-18T01:39:53;99939.37;;;-5.63;100.00
38267;BME280;24063;51.794;19.578;2022-12-18T01:41:00;99942.33;;;-5.63;100.00
38267;BME280;24063;51.794;19.578;2022-12-18T01:42:03;99946.13;;;-5.64;100.00
38267;BME280;24063;51.794;19.578;2022-12-18T01:43:05;99947.04;;;-5.67;100.00
38267;BME280;24063;51.794;19.578;2022-12-18T01:46:08;99950.83;;;-5.72;100.00
38267;BME280;24063;51.794;19.578;2022-12-18T01:47:18;99951.69;;;-5.74;100.00
38267;BME280;24063;51.794;19.578;2022-12-18T01:48:23;99948.39;;;-5.76;100.00
38267;BME280;24063;51.794;19.578;2022-12-18T01:49:25;99954.23;;;-5.78;100.00
38267;BME280;24063;51.794;19.578;2022-12-18T01:51:35;99950.31;;;-5.82;100.00
38267;BME280;24063;51.794;19.578;2022-12-18T01:52:42;99951.23;;;-5.80;100.00
38267;BME280;24063;51.794;19.578;2022-12-18T01:53:46;99953.33;;;-5.80;100.00
38267;BME280;24063;51.794;19.578;2022-12-18T01:54:51;99953.15;;;-5.80;100.00
38267;BME280;24063;51.794;19.578;2022-12-18T01:55:57;99956.52;;;-5.81;100.00
38267;BME280;24063;51.794;19.578;2022-12-18T01:57:01;99958.09;;;-5.80;100.00
38267;BME280;24063;51.794;19.578;2022-12-18T01:58:04;99954.23;;;-5.80;100.00
38267;BME280;24063;51.794;19.578;2022-12-18T01:59:10;99955.73;;;-5.80;100.00
38267;BME280;24063;51.794;19.578;2022-12-18T02:00:17;99957.95;;;-5.79;100.00
38267;BME280;24063;51.794;19.578;2022-12-18T02:01:21;99960.72;;;-5.78;100.00
38267;BME280;24063;51.794;19.578;2022-12-18T02:02:27;99964.55;;;-5.78;100.00
38267;BME280;24063;51.794;19.578;2022-12-18T02:03:31;99962.63;;;-5.80;100.00
38267;BME280;24063;51.794;19.578;2022-12-18T02:04:33;99966.21;;;-5.81;100.00
38267;BME280;24063;51.794;19.578;2022-12-18T02:06:43;99967.66;;;-5.79;100.00
38267;BME280;24063;51.794;19.578;2022-12-18T02:08:10;99972.45;;;-5.80;100.00
38267;BME280;24063;51.794;19.578;2022-12-18T02:09:26;99973.21;;;-5.79;100.00
38267;BME280;24063;51.794;19.578;2022-12-18T02:11:57;99974.83;;;-5.77;100.00
38267;BME280;24063;51.794;19.578;2022-12-18T02:16:01;99979.48;;;-5.76;100.00
38267;BME280;24063;51.794;19.578;2022-12-18T02:17:21;99987.41;;;-5.77;100.00
38267;BME280;24063;51.794;19.578;2022-12-18T02:18:33;99989.34;;;-5.75;100.00
38267;BME280;24063;51.794;19.578;2022-12-18T02:20:04;99993.95;;;-5.75;100.00
38267;BME280;24063;51.794;19.578;2022-12-18T02:23:56;99997.70;;;-5.84;100.00
38267;BME280;24063;51.794;19.578;2022-12-18T02:25:01;99998.07;;;-5.86;100.00
38267;BME280;24063;51.794;19.578;2022-12-18T02:26:19;99999.28;;;-5.88;100.00
38267;BME280;24063;51.794;19.578;2022-12-18T02:27:24;99997.09;;;-5.89;100.00
38267;BME280;24063;51.794;19.578;2022-12-18T02:28:42;99998.10;;;-5.88;100.00
38267;BME280;24063;51.794;19.578;2022-12-18T02:29:52;100003.98;;;-5.87;100.00
38267;BME280;24063;51.794;19.578;2022-12-18T02:31:06;100004.04;;;-5.86;100.00
38267;BME280;24063;51.794;19.578;2022-12-18T02:32:15;100005.67;;;-5.84;100.00
38267;BME280;24063;51.794;19.578;2022-12-18T02:33:22;100001.79;;;-5.84;100.00
38267;BME280;24063;51.794;19.578;2022-12-18T02:34:29;99998.59;;;-5.86;100.00
38267;BME280;24063;51.794;19.578;2022-12-18T02:35:34;99998.67;;;-5.85;100.00
38267;BME280;24063;51.794;19.578;2022-12-18T02:36:41;100000.92;;;-5.85;100.00
38267;BME280;24063;51.794;19.578;2022-12-18T02:37:47;100005.60;;;-5.84;100.00
38267;BME280;24063;51.794;19.578;2022-12-18T02:38:52;100004.50;;;-5.83;100.00
38267;BME280;24063;51.794;19.578;2022-12-18T02:39:58;100005.70;;;-5.83;100.00
38267;BME280;24063;51.794;19.578;2022-12-18T02:41:03;100004.23;;;-5.82;100.00
38267;BME280;24063;51.794;19.578;2022-12-18T02:42:06;100008.48;;;-5.80;100.00
38267;BME280;24063;51.794;19.578;2022-12-18T02:43:14;100011.08;;;-5.80;100.00
38267;BME280;24063;51.794;19.578;2022-12-18T02:44:16;100010.16;;;-5.82;100.00
38267;BME280;24063;51.794;19.578;2022-12-18T02:45:20;100015.14;;;-5.82;100.00
38267;BME280;24063;51.794;19.578;2022-12-18T02:46:31;100013.13;;;-5.83;100.00
38267;BME280;24063;51.794;19.578;2022-12-18T02:47:40;100020.79;;;-5.85;100.00
38267;BME280;24063;51.794;19.578;2022-12-18T02:48:46;100023.51;;;-5.88;100.00
38267;BME280;24063;51.794;19.578;2022-12-18T02:51:08;100023.66;;;-5.90;100.00
38267;BME280;24063;51.794;19.578;2022-12-18T02:53:35;100026.83;;;-5.90;100.00
38267;BME280;24063;51.794;19.578;2022-12-18T02:56:12;100029.65;;;-5.90;100.00
38267;BME280;24063;51.794;19.578;2022-12-18T02:58:55;100025.27;;;-5.92;100.00
38267;BME280;24063;51.794;19.578;2022-12-18T03:00:18;100024.84;;;-5.93;100.00
38267;BME280;24063;51.794;19.578;2022-12-18T03:02:51;100025.54;;;-5.91;100.00
38267;BME280;24063;51.794;19.578;2022-12-18T03:04:13;100029.82;;;-5.90;100.00
38267;BME280;24063;51.794;19.578;2022-12-18T03:05:28;100032.42;;;-5.90;100.00
38267;BME280;24063;51.794;19.578;2022-12-18T03:06:44;100031.56;;;-5.90;100.00
38267;BME280;24063;51.794;19.578;2022-12-18T03:08:03;100030.04;;;-5.90;100.00
38267;BME280;24063;51.794;19.578;2022-12-18T03:09:18;100030.91;;;-5.91;100.00
38267;BME280;24063;51.794;19.578;2022-12-18T03:10:28;100032.06;;;-5.90;100.00
38267;BME280;24063;51.794;19.578;2022-12-18T03:11:36;100031.98;;;-5.90;100.00
38267;BME280;24063;51.794;19.578;2022-12-18T03:13:08;100028.73;;;-5.93;100.00
38267;BME280;24063;51.794;19.578;2022-12-18T03:14:16;100028.94;;;-5.94;100.00
38267;BME280;24063;51.794;19.578;2022-12-18T03:15:30;100027.96;;;-5.96;100.00
38267;BME280;24063;51.794;19.578;2022-12-18T03:16:43;100022.89;;;-6.00;100.00
38267;BME280;24063;51.794;19.578;2022-12-18T03:17:54;100027.03;;;-6.04;100.00
38267;BME280;24063;51.794;19.578;2022-12-18T03:19:14;100028.39;;;-6.03;100.00
38267;BME280;24063;51.794;19.578;2022-12-18T03:20:21;100030.99;;;-6.03;100.00
38267;BME280;24063;51.794;19.578;2022-12-18T03:21:32;100034.17;;;-6.03;100.00
38267;BME280;24063;51.794;19.578;2022-12-18T03:22:38;100030.94;;;-6.06;100.00
38267;BME280;24063;51.794;19.578;2022-12-18T03:23:49;100036.08;;;-6.05;100.00
38267;BME280;24063;51.794;19.578;2022-12-18T03:24:56;100037.56;;;-6.03;100.00
38267;BME280;24063;51.794;19.578;2022-12-18T03:26:08;100037.17;;;-6.01;100.00
38267;BME280;24063;51.794;19.578;2022-12-18T03:27:17;100036.49;;;-6.00;100.00
38267;BME280;24063;51.794;19.578;2022-12-18T03:28:22;100037.16;;;-5.97;100.00
38267;BME280;24063;51.794;19.578;2022-12-18T03:29:40;100040.46;;;-5.97;100.00
38267;BME280;24063;51.794;19.578;2022-12-18T03:30:52;100044.67;;;-5.97;100.00
38267;BME280;24063;51.794;19.578;2022-12-18T03:32:11;100051.23;;;-5.98;100.00
38267;BME280;24063;51.794;19.578;2022-12-18T03:33:27;100055.04;;;-5.97;100.00
38267;BME280;24063;51.794;19.578;2022-12-18T03:34:34;100057.20;;;-5.98;100.00
38267;BME280;24063;51.794;19.578;2022-12-18T03:35:42;100060.83;;;-5.97;100.00
38267;BME280;24063;51.794;19.578;2022-12-18T03:36:45;100063.64;;;-5.97;100.00
38267;BME280;24063;51.794;19.578;2022-12-18T03:37:48;100065.06;;;-5.95;100.00
38267;BME280;24063;51.794;19.578;2022-12-18T03:38:52;100069.67;;;-5.94;100.00
38267;BME280;24063;51.794;19.578;2022-12-18T03:39:55;100069.81;;;-5.94;100.00
38267;BME280;24063;51.794;19.578;2022-12-18T03:41:12;100070.85;;;-5.94;100.00
38267;BME280;24063;51.794;19.578;2022-12-18T03:42:51;100074.29;;;-5.91;100.00
38267;BME280;24063;51.794;19.578;2022-12-18T03:44:14;100076.97;;;-5.89;100.00
38267;BME280;24063;51.794;19.578;2022-12-18T03:45:53;100080.46;;;-5.89;100.00
38267;BME280;24063;51.794;19.578;2022-12-18T03:47:09;100086.17;;;-5.88;100.00
38267;BME280;24063;51.794;19.578;2022-12-18T03:48:31;100084.20;;;-5.90;100.00
38267;BME280;24063;51.794;19.578;2022-12-18T03:50:10;100087.84;;;-5.93;100.00
38267;BME280;24063;51.794;19.578;2022-12-18T03:51:43;100086.94;;;-5.96;100.00
38267;BME280;24063;51.794;19.578;2022-12-18T03:52:57;100086.05;;;-5.96;100.00
38267;BME280;24063;51.794;19.578;2022-12-18T03:54:09;100087.90;;;-5.98;100.00
38267;BME280;24063;51.794;19.578;2022-12-18T03:55:19;100093.63;;;-5.99;100.00
38267;BME280;24063;51.794;19.578;2022-12-18T03:56:35;100095.85;;;-5.98;100.00
38267;BME280;24063;51.794;19.578;2022-12-18T03:57:47;100100.59;;;-5.98;100.00
38267;BME280;24063;51.794;19.578;2022-12-18T03:58:53;100103.58;;;-5.98;100.00
38267;BME280;24063;51.794;19.578;2022-12-18T04:00:09;100098.27;;;-5.96;100.00
38267;BME280;24063;51.794;19.578;2022-12-18T04:01:16;100099.60;;;-5.91;100.00
38267;BME280;24063;51.794;19.578;2022-12-18T04:02:26;100102.75;;;-5.87;100.00
38267;BME280;24063;51.794;19.578;2022-12-18T04:03:33;100102.30;;;-5.86;100.00
38267;BME280;24063;51.794;19.578;2022-12-18T04:04:40;100100.31;;;-5.87;100.00
38267;BME280;24063;51.794;19.578;2022-12-18T04:05:46;100103.34;;;-5.85;100.00
38267;BME280;24063;51.794;19.578;2022-12-18T04:06:52;100107.19;;;-5.85;100.00
38267;BME280;24063;51.794;19.578;2022-12-18T04:07:56;100110.14;;;-5.85;100.00
38267;BME280;24063;51.794;19.578;2022-12-18T04:08:59;100110.98;;;-5.84;100.00
38267;BME280;24063;51.794;19.578;2022-12-18T04:10:03;100107.08;;;-5.84;100.00
38267;BME280;24063;51.794;19.578;2022-12-18T04:11:12;100111.98;;;-5.82;100.00
38267;BME280;24063;51.794;19.578;2022-12-18T04:12:15;100109.03;;;-5.82;100.00
38267;BME280;24063;51.794;19.578;2022-12-18T04:13:28;100110.14;;;-5.81;100.00
38267;BME280;24063;51.794;19.578;2022-12-18T04:14:31;100114.27;;;-5.82;100.00
38267;BME280;24063;51.794;19.578;2022-12-18T04:15:38;100112.13;;;-5.81;100.00
38267;BME280;24063;51.794;19.578;2022-12-18T04:16:44;100111.84;;;-5.80;100.00
38267;BME280;24063;51.794;19.578;2022-12-18T04:17:50;100113.67;;;-5.79;100.00
38267;BME280;24063;51.794;19.578;2022-12-18T04:18:55;100114.33;;;-5.79;100.00
38267;BME280;24063;51.794;19.578;2022-12-18T04:19:59;100110.65;;;-5.78;100.00
38267;BME280;24063;51.794;19.578;2022-12-18T04:21:02;100111.46;;;-5.78;100.00
38267;BME280;24063;51.794;19.578;2022-12-18T04:22:04;100111.51;;;-5.78;100.00
38267;BME280;24063;51.794;19.578;2022-12-18T04:23:11;100112.23;;;-5.78;100.00
38267;BME280;24063;51.794;19.578;2022-12-18T04:24:14;100113.10;;;-5.78;100.00
38267;BME280;24063;51.794;19.578;2022-12-18T04:25:24;100115.20;;;-5.78;100.00
38267;BME280;24063;51.794;19.578;2022-12-18T04:26:36;100114.11;;;-5.80;100.00
38267;BME280;24063;51.794;19.578;2022-12-18T04:27:46;100115.44;;;-5.81;100.00
38267;BME280;24063;51.794;19.578;2022-12-18T04:28:49;100118.98;;;-5.81;100.00
38267;BME280;24063;51.794;19.578;2022-12-18T04:29:51;100121.16;;;-5.82;100.00
38267;BME280;24063;51.794;19.578;2022-12-18T04:30:53;100122.38;;;-5.84;100.00
38267;BME280;24063;51.794;19.578;2022-12-18T04:31:56;100125.45;;;-5.85;100.00
38267;BME280;24063;51.794;19.578;2022-12-18T04:33:01;100126.73;;;-5.86;100.00
38267;BME280;24063;51.794;19.578;2022-12-18T04:34:04;100125.20;;;-5.84;100.00
38267;BME280;24063;51.794;19.578;2022-12-18T04:35:11;100130.44;;;-5.84;100.00
38267;BME280;24063;51.794;19.578;2022-12-18T04:36:15;100133.48;;;-5.85;100.00
38267;BME280;24063;51.794;19.578;2022-12-18T04:37:19;100138.40;;;-5.85;100.00
38267;BME280;24063;51.794;19.578;2022-12-18T04:38:23;100138.62;;;-5.85;100.00
38267;BME280;24063;51.794;19.578;2022-12-18T04:39:32;100137.95;;;-5.86;100.00
38267;BME280;24063;51.794;19.578;2022-12-18T04:40:39;100141.63;;;-5.86;100.00
38267;BME280;24063;51.794;19.578;2022-12-18T04:41:48;100141.23;;;-5.85;100.00
38267;BME280;24063;51.794;19.578;2022-12-18T04:42:51;100148.29;;;-5.85;100.00
38267;BME280;24063;51.794;19.578;2022-12-18T04:43:53;100147.75;;;-5.85;100.00
38267;BME280;24063;51.794;19.578;2022-12-18T04:44:55;100148.64;;;-5.86;100.00
38267;BME280;24063;51.794;19.578;2022-12-18T04:46:03;100149.81;;;-5.87;100.00
38267;BME280;24063;51.794;19.578;2022-12-18T04:47:06;100145.59;;;-5.87;100.00
38267;BME280;24063;51.794;19.578;2022-12-18T04:48:09;100145.23;;;-5.87;100.00
38267;BME280;24063;51.794;19.578;2022-12-18T04:49:12;100148.04;;;-5.87;100.00
38267;BME280;24063;51.794;19.578;2022-12-18T04:50:14;100149.33;;;-5.85;100.00
38267;BME280;24063;51.794;19.578;2022-12-18T04:51:16;100150.77;;;-5.83;100.00
38267;BME280;24063;51.794;19.578;2022-12-18T04:52:25;100154.68;;;-5.82;100.00
38267;BME280;24063;51.794;19.578;2022-12-18T04:53:27;100156.77;;;-5.80;100.00
38267;BME280;24063;51.794;19.578;2022-12-18T04:54:29;100153.09;;;-5.78;100.00
38267;BME280;24063;51.794;19.578;2022-12-18T04:55:31;100156.48;;;-5.77;100.00
38267;BME280;24063;51.794;19.578;2022-12-18T04:56:33;100158.70;;;-5.76;100.00
38267;BME280;24063;51.794;19.578;2022-12-18T04:57:35;100156.64;;;-5.79;100.00
38267;BME280;24063;51.794;19.578;2022-12-18T04:58:40;100159.02;;;-5.80;100.00
38267;BME280;24063;51.794;19.578;2022-12-18T04:59:42;100163.06;;;-5.80;100.00
38267;BME280;24063;51.794;19.578;2022-12-18T05:00:45;100162.61;;;-5.80;100.00
38267;BME280;24063;51.794;19.578;2022-12-18T05:01:47;100161.48;;;-5.82;100.00
38267;BME280;24063;51.794;19.578;2022-12-18T05:02:50;100162.33;;;-5.83;100.00
38267;BME280;24063;51.794;19.578;2022-12-18T05:03:52;100162.17;;;-5.84;100.00
38267;BME280;24063;51.794;19.578;2022-12-18T05:04:55;100168.16;;;-5.84;100.00
38267;BME280;24063;51.794;19.578;2022-12-18T05:05:57;100163.68;;;-5.85;100.00
38267;BME280;24063;51.794;19.578;2022-12-18T05:06:59;100161.34;;;-5.86;100.00
38267;BME280;24063;51.794;19.578;2022-12-18T05:08:02;100165.43;;;-5.87;100.00
38267;BME280;24063;51.794;19.578;2022-12-18T05:09:03;100164.39;;;-5.87;100.00
38267;BME280;24063;51.794;19.578;2022-12-18T05:10:07;100170.32;;;-5.86;100.00
38267;BME280;24063;51.794;19.578;2022-12-18T05:11:12;100166.50;;;-5.85;100.00
38267;BME280;24063;51.794;19.578;2022-12-18T05:12:17;100166.56;;;-5.84;100.00
38267;BME280;24063;51.794;19.578;2022-12-18T05:13:19;100168.06;;;-5.81;100.00
38267;BME280;24063;51.794;19.578;2022-12-18T05:14:21;100168.94;;;-5.81;100.00
38267;BME280;24063;51.794;19.578;2022-12-18T05:15:26;100171.67;;;-5.82;100.00
38267;BME280;24063;51.794;19.578;2022-12-18T05:16:29;100171.14;;;-5.84;100.00
38267;BME280;24063;51.794;19.578;2022-12-18T05:17:31;100171.46;;;-5.83;100.00
38267;BME280;24063;51.794;19.578;2022-12-18T05:18:33;100176.48;;;-5.85;100.00
38267;BME280;24063;51.794;19.578;2022-12-18T05:19:36;100175.16;;;-5.85;100.00
38267;BME280;24063;51.794;19.578;2022-12-18T05:20:37;100177.94;;;-5.88;100.00
38267;BME280;24063;51.794;19.578;2022-12-18T05:21:40;100176.16;;;-5.89;100.00
38267;BME280;24063;51.794;19.578;2022-12-18T05:22:42;100182.23;;;-5.91;100.00
38267;BME280;24063;51.794;19.578;2022-12-18T05:23:44;100182.63;;;-5.91;100.00
38267;BME280;24063;51.794;19.578;2022-12-18T05:24:45;100181.71;;;-5.93;100.00
38267;BME280;24063;51.794;19.578;2022-12-18T05:25:52;100181.84;;;-5.92;100.00
38267;BME280;24063;51.794;19.578;2022-12-18T05:26:54;100184.23;;;-5.91;100.00
38267;BME280;24063;51.794;19.578;2022-12-18T05:27:56;100187.10;;;-5.90;100.00
38267;BME280;24063;51.794;19.578;2022-12-18T05:28:59;100182.80;;;-5.89;100.00
38267;BME280;24063;51.794;19.578;2022-12-18T05:30:02;100184.27;;;-5.88;100.00
38267;BME280;24063;51.794;19.578;2022-12-18T05:31:05;100183.30;;;-5.89;100.00
38267;BME280;24063;51.794;19.578;2022-12-18T05:32:07;100183.79;;;-5.90;100.00
38267;BME280;24063;51.794;19.578;2022-12-18T05:33:10;100186.16;;;-5.93;100.00
38267;BME280;24063;51.794;19.578;2022-12-18T05:34:12;100187.48;;;-5.96;100.00
38267;BME280;24063;51.794;19.578;2022-12-18T05:35:14;100188.77;;;-5.97;100.00
38267;BME280;24063;51.794;19.578;2022-12-18T05:36:17;100190.83;;;-5.96;100.00
38267;BME280;24063;51.794;19.578;2022-12-18T05:37:19;100191.86;;;-5.94;100.00
38267;BME280;24063;51.794;19.578;2022-12-18T05:38:22;100188.60;;;-5.93;100.00
38267;BME280;24063;51.794;19.578;2022-12-18T05:39:25;100194.95;;;-5.92;100.00
38267;BME280;24063;51.794;19.578;2022-12-18T05:40:26;100197.80;;;-5.90;100.00
38267;BME280;24063;51.794;19.578;2022-12-18T05:41:29;100200.60;;;-5.88;100.00
38267;BME280;24063;51.794;19.578;2022-12-18T05:42:31;100197.83;;;-5.88;100.00
38267;BME280;24063;51.794;19.578;2022-12-18T05:43:37;100200.63;;;-5.88;100.00
38267;BME280;24063;51.794;19.578;2022-12-18T05:44:40;100196.88;;;-5.90;100.00
38267;BME280;24063;51.794;19.578;2022-12-18T05:45:42;100195.02;;;-5.90;100.00
38267;BME280;24063;51.794;19.578;2022-12-18T05:46:44;100194.40;;;-5.91;100.00
38267;BME280;24063;51.794;19.578;2022-12-18T05:47:46;100192.39;;;-5.90;100.00
38267;BME280;24063;51.794;19.578;2022-12-18T05:48:48;100201.78;;;-5.89;100.00
38267;BME280;24063;51.794;19.578;2022-12-18T05:49:52;100205.97;;;-5.89;100.00
38267;BME280;24063;51.794;19.578;2022-12-18T05:50:54;100206.66;;;-5.89;100.00
38267;BME280;24063;51.794;19.578;2022-12-18T05:51:56;100206.00;;;-5.89;100.00
38267;BME280;24063;51.794;19.578;2022-12-18T05:52:58;100207.80;;;-5.90;100.00
38267;BME280;24063;51.794;19.578;2022-12-18T05:54:00;100204.16;;;-5.90;100.00
38267;BME280;24063;51.794;19.578;2022-12-18T05:55:02;100209.20;;;-5.92;100.00
38267;BME280;24063;51.794;19.578;2022-12-18T05:56:07;100204.45;;;-5.92;100.00
38267;BME280;24063;51.794;19.578;2022-12-18T05:57:10;100202.91;;;-5.92;100.00